createdAt,value
2022-12-04T00:02:44.559Z,16.88
2022-12-04T00:05:46.935Z,17.98
2022-12-04T00:08:49.654Z,17.17
2022-12-04T00:11:51.895Z,17.00
2022-12-04T00:15:24.546Z,17.98
2022-12-04T00:18:16.345Z,16.38
2022-12-04T00:21:20.327Z,16.38
2022-12-04T00:24:22.555Z,17.17
2022-12-04T00:27:24.877Z,16.63
2022-12-04T00:30:27.184Z,17.25
2022-12-04T00:33:29.441Z,17.83
2022-12-04T00:36:31.752Z,18.35
2022-12-04T00:39:34.088Z,17.30
2022-12-04T00:42:36.376Z,17.10
2022-12-04T00:45:38.700Z,17.65
2022-12-04T00:48:41.499Z,17.15
2022-12-04T00:51:43.813Z,17.10
2022-12-04T00:54:46.078Z,17.63
2022-12-04T00:57:48.605Z,17.65
2022-12-04T01:00:51.072Z,16.73
2022-12-04T01:03:54.401Z,17.92
2022-12-04T01:07:01.558Z,17.05
2022-12-04T01:10:08.916Z,17.10
2022-12-04T01:13:11.499Z,17.20
2022-12-04T01:16:28.563Z,16.98
2022-12-04T01:19:31.183Z,17.48
2022-12-04T01:22:33.492Z,17.67
2022-12-04T01:25:35.740Z,16.60
2022-12-04T01:28:38.323Z,17.58
2022-12-04T01:31:40.712Z,18.73
2022-12-04T01:34:43.127Z,18.05
2022-12-04T01:37:45.501Z,18.50
2022-12-04T01:40:48.181Z,18.47
2022-12-04T01:44:12.480Z,18.70
2022-12-04T01:47:14.787Z,18.75
2022-12-04T01:50:17.169Z,18.67
2022-12-04T01:53:19.801Z,19.23
2022-12-04T01:56:29.567Z,22.23
2022-12-04T01:59:35.721Z,20.48
2022-12-04T02:02:40.554Z,20.23
2022-12-04T02:05:42.923Z,20.13
2022-12-04T02:08:45.354Z,19.35
2022-12-04T02:12:19.938Z,20.00
2022-12-04T02:15:25.087Z,19.92
2022-12-04T02:18:38.613Z,19.58
2022-12-04T02:21:44.169Z,19.52
2022-12-04T02:25:08.131Z,20.35
2022-12-04T02:28:19.819Z,20.13
2022-12-04T02:31:28.645Z,20.33
2022-12-04T02:34:43.452Z,19.88
2022-12-04T02:38:04.213Z,20.15
2022-12-04T02:41:23.364Z,19.92
2022-12-04T02:44:39.133Z,20.07
2022-12-04T02:47:43.221Z,19.90
2022-12-04T02:50:47.564Z,20.60
2022-12-04T02:53:53.884Z,21.02
2022-12-04T02:56:56.805Z,20.25
2022-12-04T03:00:00.366Z,20.40
2022-12-04T03:03:18.341Z,20.92
2022-12-04T03:06:22.247Z,20.73
2022-12-04T03:09:38.114Z,21.35
2022-12-04T03:13:04.176Z,19.73
2022-12-04T03:16:11.073Z,20.67
2022-12-04T03:19:20.339Z,18.88
2022-12-04T03:22:24.548Z,19.20
2022-12-04T03:25:33.579Z,18.73
2022-12-04T03:29:01.752Z,19.02
2022-12-04T03:32:16.786Z,19.37
2022-12-04T03:35:28.102Z,18.40
2022-12-04T03:38:47.429Z,18.27
2022-12-04T03:41:59.766Z,19.15
2022-12-04T03:45:05.330Z,18.33
2022-12-04T03:48:23.344Z,18.00
2022-12-04T03:52:04.836Z,18.70
2022-12-04T03:55:29.195Z,18.35
2022-12-04T03:58:33.647Z,17.40
2022-12-04T04:01:39.999Z,19.42
2022-12-04T04:04:45.442Z,18.80
2022-12-04T04:07:56.984Z,18.80
2022-12-04T04:11:17.455Z,20.83
2022-12-04T04:15:14.112Z,19.48
2022-12-04T04:18:34.948Z,19.35
2022-12-04T04:21:57.771Z,18.43
2022-12-04T04:25:07.084Z,19.65
2022-12-04T04:28:27.649Z,19.20
2022-12-04T04:31:34.606Z,18.85
2022-12-04T04:35:04.967Z,18.45
2022-12-04T04:38:25.984Z,19.77
2022-12-04T04:41:42.643Z,16.83
2022-12-04T04:44:50.880Z,18.58
2022-12-04T04:48:32.043Z,18.48
2022-12-04T04:51:35.214Z,17.17
2022-12-04T04:54:37.725Z,16.20
2022-12-04T04:57:40.013Z,18.00
2022-12-04T05:00:52.899Z,17.98
2022-12-04T05:03:55.191Z,17.00
2022-12-04T05:06:57.492Z,17.63
2022-12-04T05:09:59.845Z,16.50
2022-12-04T05:13:02.145Z,16.15
2022-12-04T05:16:07.014Z,16.40
2022-12-04T05:19:27.851Z,17.23
2022-12-04T05:22:32.506Z,16.65
2022-12-04T05:25:34.746Z,16.83
2022-12-04T05:28:37.084Z,17.58
2022-12-04T05:31:39.563Z,18.40
2022-12-04T05:34:42.434Z,19.58
2022-12-04T05:37:45.648Z,19.95
2022-12-04T05:40:47.861Z,19.93
2022-12-04T05:43:50.143Z,21.55
2022-12-04T05:46:52.525Z,21.85
2022-12-04T05:49:56.250Z,21.60
2022-12-04T05:52:58.719Z,20.98
2022-12-04T05:56:02.401Z,21.67
2022-12-04T05:59:04.672Z,22.50
2022-12-04T06:02:06.992Z,21.17
2022-12-04T06:05:09.379Z,21.10
2022-12-04T06:08:11.852Z,21.70
2022-12-04T06:11:15.827Z,21.40
2022-12-04T06:14:18.176Z,21.80
2022-12-04T06:17:20.468Z,22.77
2022-12-04T06:20:22.939Z,20.33
2022-12-04T06:23:25.304Z,21.40
2022-12-04T06:26:27.760Z,20.10
2022-12-04T06:29:30.146Z,22.08
2022-12-04T06:32:32.466Z,22.25
2022-12-04T06:35:34.714Z,20.40
2022-12-04T06:38:37.198Z,22.02
2022-12-04T06:41:39.538Z,22.73
2022-12-04T06:44:41.878Z,22.55
2022-12-04T06:47:44.164Z,22.35
2022-12-04T06:50:46.397Z,20.50
2022-12-04T06:53:49.075Z,20.30
2022-12-04T06:56:51.395Z,21.47
2022-12-04T06:59:54.040Z,19.98
2022-12-04T07:02:56.402Z,21.17
2022-12-04T07:05:58.611Z,19.92
2022-12-04T07:09:06.622Z,21.55
2022-12-04T07:12:08.852Z,20.67
2022-12-04T07:15:11.322Z,22.38
2022-12-04T07:18:13.566Z,20.63
2022-12-04T07:21:21.012Z,21.60
2022-12-04T07:24:23.335Z,21.08
2022-12-04T07:27:25.602Z,20.40
2022-12-04T07:30:27.883Z,21.73
2022-12-04T07:33:30.159Z,23.13
2022-12-04T07:36:32.440Z,21.48
2022-12-04T07:39:34.930Z,20.92
2022-12-04T07:42:37.197Z,22.43
2022-12-04T07:45:39.506Z,22.02
2022-12-04T07:48:42.053Z,22.30
2022-12-04T07:51:44.391Z,20.75
2022-12-04T07:54:46.697Z,21.25
2022-12-04T07:57:48.998Z,20.87
2022-12-04T08:00:51.355Z,22.05
2022-12-04T08:03:56.710Z,21.70
2022-12-04T08:06:59.486Z,20.63
2022-12-04T08:10:01.830Z,21.60
2022-12-04T08:13:04.136Z,21.53
2022-12-04T08:16:11.520Z,22.63
2022-12-04T08:19:13.895Z,24.85
2022-12-04T08:22:20.329Z,22.55
2022-12-04T08:25:25.656Z,22.65
2022-12-04T08:28:28.425Z,19.93
2022-12-04T08:31:33.147Z,19.95
2022-12-04T08:34:35.500Z,18.58
2022-12-04T08:37:37.805Z,20.13
2022-12-04T08:40:40.074Z,19.17
2022-12-04T08:43:42.388Z,20.37
2022-12-04T08:46:44.760Z,18.73
2022-12-04T08:49:47.204Z,20.10
2022-12-04T08:52:49.462Z,19.20
2022-12-04T08:55:52.540Z,20.15
2022-12-04T08:58:56.086Z,18.13
2022-12-04T09:01:58.404Z,18.38
2022-12-04T09:05:00.756Z,18.42
2022-12-04T09:08:03.069Z,17.50
2022-12-04T09:11:09.828Z,18.98
2022-12-04T09:14:12.211Z,17.57
2022-12-04T09:17:14.897Z,20.00
2022-12-04T09:20:17.184Z,17.77
2022-12-04T09:23:19.720Z,18.50
2022-12-04T09:26:26.361Z,18.80
2022-12-04T09:29:28.713Z,19.13
2022-12-04T09:32:31.071Z,18.48
2022-12-04T09:35:34.399Z,18.80
2022-12-04T09:38:36.745Z,19.75
2022-12-04T09:42:13.289Z,18.23
2022-12-04T09:45:21.235Z,20.00
2022-12-04T09:48:29.114Z,18.55
2022-12-04T09:51:31.614Z,19.48
2022-12-04T09:54:38.636Z,17.67
2022-12-04T09:57:44.603Z,17.30
2022-12-04T10:00:49.446Z,16.60
2022-12-04T10:03:53.222Z,17.60
2022-12-04T10:07:41.311Z,15.75
2022-12-04T10:11:09.426Z,15.73
2022-12-04T10:14:42.979Z,15.90
2022-12-04T10:18:16.199Z,15.53
2022-12-04T10:21:24.692Z,14.35
2022-12-04T10:24:39.053Z,14.90
2022-12-04T10:27:53.584Z,13.85
2022-12-04T10:30:58.398Z,13.60
2022-12-04T10:34:17.720Z,13.50
2022-12-04T10:37:20.275Z,12.55
2022-12-04T10:40:25.012Z,13.23
2022-12-04T10:43:42.165Z,12.60
2022-12-04T10:46:46.274Z,11.68
2022-12-04T10:49:49.102Z,12.77
2022-12-04T10:52:51.834Z,11.27
2022-12-04T10:55:54.121Z,11.35
2022-12-04T10:59:05.717Z,12.23
2022-12-04T11:02:25.869Z,11.93
2022-12-04T11:05:55.500Z,12.03
2022-12-04T11:08:59.192Z,11.70
2022-12-04T11:12:09.927Z,11.90
2022-12-04T11:15:14.777Z,11.07
2022-12-04T11:18:49.522Z,11.75
2022-12-04T11:21:53.428Z,12.87
2022-12-04T11:24:57.953Z,12.55
2022-12-04T11:28:01.547Z,12.85
2022-12-04T11:31:05.185Z,11.68
2022-12-04T11:34:09.328Z,12.07
2022-12-04T11:37:34.090Z,12.67
2022-12-04T11:40:36.683Z,11.73
2022-12-04T11:43:50.864Z,13.27
2022-12-04T11:46:58.055Z,11.77
2022-12-04T11:50:14.399Z,12.52
2022-12-04T11:53:41.583Z,11.20
2022-12-04T11:56:48.365Z,11.85
2022-12-04T12:00:14.756Z,12.98
2022-12-04T12:03:40.101Z,10.77
2022-12-04T12:07:03.827Z,10.75
2022-12-04T12:10:17.759Z,11.43
2022-12-04T12:14:01.429Z,11.10
2022-12-04T12:17:23.618Z,11.52
2022-12-04T12:20:39.813Z,12.27
2022-12-04T12:23:51.959Z,11.82
2022-12-04T12:27:08.518Z,10.40
2022-12-04T12:30:18.269Z,11.13
2022-12-04T12:33:24.623Z,11.10
2022-12-04T12:36:29.871Z,11.45
2022-12-04T12:40:04.723Z,11.02
2022-12-04T12:43:19.791Z,10.97
2022-12-04T12:46:30.993Z,10.32
2022-12-04T12:49:55.628Z,11.65
2022-12-04T12:53:17.354Z,11.77
2022-12-04T12:56:26.181Z,12.20
2022-12-04T12:59:28.879Z,11.57
2022-12-04T13:02:41.365Z,11.18
2022-12-04T13:05:46.656Z,11.95
2022-12-04T13:09:06.993Z,10.57
2022-12-04T13:12:13.376Z,11.48
2022-12-04T13:15:17.341Z,11.70
2022-12-04T13:18:26.065Z,11.52
2022-12-04T13:21:29.859Z,12.68
2022-12-04T13:24:39.751Z,12.07
2022-12-04T13:27:50.788Z,11.88
2022-12-04T13:31:20.452Z,11.70
2022-12-04T13:34:55.126Z,12.02
2022-12-04T13:38:23.740Z,12.70
2022-12-04T13:41:27.356Z,13.40
2022-12-04T13:44:31.453Z,14.35
2022-12-04T13:47:35.514Z,14.30
2022-12-04T13:50:39.184Z,13.02
2022-12-04T13:53:43.127Z,13.25
2022-12-04T13:56:48.231Z,13.18
2022-12-04T14:00:06.501Z,14.75
2022-12-04T14:03:28.895Z,13.43
2022-12-04T14:06:41.753Z,18.10
2022-12-04T14:09:49.755Z,16.20
2022-12-04T14:12:59.757Z,16.83
2022-12-04T14:16:10.257Z,15.13
2022-12-04T14:19:26.524Z,14.90
2022-12-04T14:22:38.150Z,14.70
2022-12-04T14:25:40.586Z,20.70
2022-12-04T14:28:43.932Z,18.75
2022-12-04T14:31:46.228Z,18.48
2022-12-04T14:34:49.613Z,17.17
2022-12-04T14:37:59.397Z,15.85
2022-12-04T14:41:02.080Z,15.02
2022-12-04T14:44:04.727Z,16.45
2022-12-04T14:47:25.781Z,14.90
2022-12-04T14:50:34.717Z,15.57
2022-12-04T14:54:00.538Z,15.95
2022-12-04T14:57:27.246Z,15.93
2022-12-04T15:00:29.550Z,16.48
2022-12-04T15:03:42.748Z,16.85
2022-12-04T15:06:47.839Z,18.97
2022-12-04T15:10:10.870Z,17.65
2022-12-04T15:13:21.425Z,19.60
2022-12-04T15:16:24.197Z,18.73
2022-12-04T15:19:26.464Z,19.75
2022-12-04T15:22:29.175Z,18.57
2022-12-04T15:25:44.613Z,18.63
2022-12-04T15:28:57.396Z,18.05
2022-12-04T15:32:04.137Z,17.60
2022-12-04T15:35:10.019Z,17.88
2022-12-04T15:38:15.649Z,18.73
2022-12-04T15:41:44.335Z,18.15
2022-12-04T15:45:13.342Z,19.10
2022-12-04T15:48:24.887Z,20.35
2022-12-04T15:51:27.527Z,20.10
2022-12-04T15:54:29.818Z,20.13
2022-12-04T15:57:40.639Z,18.33
2022-12-04T16:00:44.330Z,19.42
2022-12-04T16:03:51.931Z,18.65
2022-12-04T16:06:54.305Z,18.42
2022-12-04T16:10:03.758Z,19.10
2022-12-04T16:13:06.548Z,18.15
2022-12-04T16:16:13.171Z,17.98
2022-12-04T16:19:34.722Z,18.67
2022-12-04T16:22:39.405Z,21.08
2022-12-04T16:25:41.787Z,42.43
2022-12-04T16:28:44.525Z,20.25
2022-12-04T16:31:47.052Z,46.63
2022-12-04T16:34:49.343Z,25.63
2022-12-04T16:37:51.713Z,20.15
2022-12-04T16:40:54.074Z,20.97
2022-12-04T16:43:58.811Z,19.95
2022-12-04T16:47:01.335Z,22.10
2022-12-04T16:50:04.060Z,17.67
2022-12-04T16:53:06.417Z,17.20
2022-12-04T16:56:09.539Z,29.37
2022-12-04T16:59:12.541Z,18.15
2022-12-04T17:02:21.945Z,17.10
2022-12-04T17:05:29.427Z,16.13
2022-12-04T17:08:32.146Z,16.55
2022-12-04T17:11:34.894Z,15.83
2022-12-04T17:14:37.176Z,15.75
2022-12-04T17:17:40.328Z,15.85
2022-12-04T17:20:43.644Z,15.90
2022-12-04T17:23:46.067Z,15.85
2022-12-04T17:26:48.326Z,16.43
2022-12-04T17:29:50.666Z,17.00
2022-12-04T17:32:53.118Z,16.95
2022-12-04T17:35:56.039Z,15.88
2022-12-04T17:38:59.542Z,17.23
2022-12-04T17:42:02.120Z,17.83
2022-12-04T17:45:05.101Z,16.55
2022-12-04T17:48:07.596Z,18.40
2022-12-04T17:51:18.036Z,19.15
2022-12-04T17:54:20.430Z,22.90
2022-12-04T17:57:22.850Z,27.27
2022-12-04T18:00:26.214Z,25.65
2022-12-04T18:03:29.019Z,23.25
2022-12-04T18:06:33.857Z,21.27
2022-12-04T18:09:36.344Z,25.27
2022-12-04T18:12:39.012Z,20.70
2022-12-04T18:15:41.279Z,19.27
2022-12-04T18:18:46.729Z,19.42
2022-12-04T18:21:49.629Z,18.52
2022-12-04T18:24:52.599Z,18.60
2022-12-04T18:27:54.878Z,17.30
2022-12-04T18:31:07.854Z,17.58
2022-12-04T18:34:10.883Z,17.48
2022-12-04T18:37:13.269Z,17.77
2022-12-04T18:40:15.606Z,17.00
2022-12-04T18:43:18.717Z,15.23
2022-12-04T18:46:22.200Z,16.50
2022-12-04T18:49:24.668Z,17.90
2022-12-04T18:52:26.924Z,17.55
2022-12-04T18:55:29.209Z,18.95
2022-12-04T18:58:31.572Z,18.47
2022-12-04T19:01:34.228Z,18.20
2022-12-04T19:04:36.505Z,17.85
2022-12-04T19:07:39.180Z,16.30
2022-12-04T19:10:41.530Z,19.05
2022-12-04T19:13:43.840Z,18.57
2022-12-04T19:16:46.524Z,21.65
2022-12-04T19:19:49.044Z,18.48
2022-12-04T19:22:51.324Z,18.10
2022-12-04T19:25:58.117Z,17.00
2022-12-04T19:29:01.966Z,17.33
2022-12-04T19:32:04.452Z,14.43
2022-12-04T19:35:07.125Z,19.70
2022-12-04T19:38:09.959Z,17.25
2022-12-04T19:41:16.763Z,18.55
2022-12-04T19:47:43.728Z,16.17
2022-12-04T19:50:46.005Z,16.25
2022-12-04T19:53:49.212Z,15.57
2022-12-04T19:56:52.721Z,15.75
2022-12-04T19:59:55.311Z,15.50
2022-12-04T20:02:57.978Z,15.23
2022-12-04T20:06:05.169Z,15.93
2022-12-04T20:09:10.622Z,15.05
2022-12-04T20:12:13.311Z,15.73
2022-12-04T20:15:15.799Z,13.77
2022-12-04T20:18:18.206Z,14.80
2022-12-04T20:21:26.327Z,14.27
2022-12-04T20:24:28.739Z,15.20
2022-12-04T20:27:31.021Z,15.00
2022-12-04T20:30:33.361Z,15.23
2022-12-04T20:33:35.729Z,16.48
2022-12-04T20:36:40.673Z,16.70
2022-12-04T20:39:43.109Z,15.43
2022-12-04T20:42:45.586Z,17.02
2022-12-04T20:45:48.012Z,16.60
2022-12-04T20:48:52.110Z,18.60
2022-12-04T20:51:54.626Z,17.35
2022-12-04T20:54:56.898Z,17.30
2022-12-04T20:57:59.220Z,14.40
2022-12-04T21:01:16.281Z,14.67
2022-12-04T21:04:18.987Z,16.38
2022-12-04T21:07:21.231Z,17.42
2022-12-04T21:10:23.544Z,14.50
2022-12-04T21:13:44.428Z,14.30
2022-12-04T21:16:47.685Z,14.60
2022-12-04T21:19:50.705Z,16.08
2022-12-04T21:22:53.028Z,15.75
2022-12-04T21:25:55.955Z,15.25
2022-12-04T21:28:58.650Z,14.85
2022-12-04T21:32:01.087Z,14.97
2022-12-04T21:35:03.682Z,14.68
2022-12-04T21:38:05.951Z,15.73
2022-12-04T21:41:09.285Z,15.30
2022-12-04T21:44:14.607Z,14.70
2022-12-04T21:47:17.527Z,15.57
2022-12-04T21:50:19.774Z,14.55
2022-12-04T21:53:22.455Z,15.35
2022-12-04T21:56:25.354Z,14.98
2022-12-04T21:59:27.863Z,15.13
2022-12-04T22:02:30.338Z,13.03
2022-12-04T22:05:33.119Z,13.68
2022-12-04T22:08:36.858Z,13.40
2022-12-04T22:11:41.878Z,13.38
2022-12-04T22:14:44.148Z,12.18
2022-12-04T22:17:46.625Z,10.80
2022-12-04T22:20:49.252Z,10.10
2022-12-04T22:23:56.308Z,8.60
2022-12-04T22:26:58.629Z,6.80
2022-12-04T22:30:00.884Z,6.13
2022-12-04T22:33:03.299Z,5.40
2022-12-04T22:36:14.076Z,4.47
2022-12-04T22:39:16.433Z,4.15
2022-12-04T22:42:19.043Z,3.70
2022-12-04T22:45:21.304Z,3.78
2022-12-04T22:48:24.669Z,3.40
2022-12-04T22:51:29.792Z,3.75
2022-12-04T22:54:32.206Z,4.20
2022-12-04T22:57:34.605Z,3.78
2022-12-04T23:00:36.866Z,4.28
2022-12-04T23:03:39.617Z,5.67
2022-12-04T23:06:41.893Z,5.68
2022-12-04T23:09:44.271Z,8.38
2022-12-04T23:12:46.627Z,9.18
2022-12-04T23:15:50.276Z,10.38
2022-12-04T23:18:52.958Z,11.23
2022-12-04T23:21:57.459Z,10.77
2022-12-04T23:25:00.196Z,9.70
2022-12-04T23:28:02.457Z,8.38
2022-12-04T23:31:04.994Z,8.90
2022-12-04T23:34:07.871Z,9.50
2022-12-04T23:37:10.302Z,8.50
2022-12-04T23:40:12.879Z,8.45
2022-12-04T23:43:18.576Z,7.93
2022-12-04T23:46:23.649Z,7.68
2022-12-04T23:49:26.028Z,8.50
2022-12-04T23:52:28.698Z,9.40
2022-12-04T23:55:34.227Z,9.05
2022-12-04T23:58:37.582Z,10.27
